sensor_id;sensor_type;location;lat;lon;timestamp;pressure;altitude;pressure_sealevel;temperature;humidity
78337;BME280;67610;51.588;7.002;2023-08-06T00:01:47;99772.19;;;17.99;72.37
78337;BME280;67610;51.588;7.002;2023-08-06T00:04:13;99776.16;;;17.90;71.95
78337;BME280;67610;51.588;7.002;2023-08-06T00:06:38;99780.72;;;17.83;72.46
78337;BME280;67610;51.588;7.002;2023-08-06T00:09:03;99766.78;;;17.87;72.81
78337;BME280;67610;51.588;7.002;2023-08-06T00:11:29;99773.34;;;17.85;71.99
78337;BME280;67610;51.588;7.002;2023-08-06T00:13:54;99762.97;;;17.77;72.71
78337;BME280;67610;51.588;7.002;2023-08-06T00:16:19;99771.28;;;17.87;72.31
78337;BME280;67610;51.588;7.002;2023-08-06T00:18:45;99764.78;;;17.83;72.70
78337;BME280;67610;51.588;7.002;2023-08-06T00:21:10;99758.22;;;17.79;72.89
78337;BME280;67610;51.588;7.002;2023-08-06T00:23:37;99749.09;;;17.93;72.30
78337;BME280;67610;51.588;7.002;2023-08-06T00:26:03;99749.69;;;17.95;72.32
78337;BME280;67610;51.588;7.002;2023-08-06T00:28:28;99752.81;;;17.92;72.98
78337;BME280;67610;51.588;7.002;2023-08-06T00:30:54;99750.41;;;17.84;72.76
78337;BME280;67610;51.588;7.002;2023-08-06T00:33:20;99752.91;;;17.79;73.52
78337;BME280;67610;51.588;7.002;2023-08-06T00:35:46;99745.22;;;17.71;73.54
78337;BME280;67610;51.588;7.002;2023-08-06T00:38:12;99749.66;;;17.77;73.57
78337;BME280;67610;51.588;7.002;2023-08-06T00:40:37;99741.53;;;17.72;73.44
78337;BME280;67610;51.588;7.002;2023-08-06T00:43:02;99743.16;;;17.73;73.57
78337;BME280;67610;51.588;7.002;2023-08-06T00:45:28;99738.13;;;17.65;73.93
78337;BME280;67610;51.588;7.002;2023-08-06T00:47:55;99735.91;;;17.62;74.13
78337;BME280;67610;51.588;7.002;2023-08-06T00:50:21;99744.31;;;17.59;74.56
78337;BME280;67610;51.588;7.002;2023-08-06T00:52:48;99735.03;;;17.68;74.20
78337;BME280;67610;51.588;7.002;2023-08-06T00:55:14;99734.00;;;17.69;73.70
78337;BME280;67610;51.588;7.002;2023-08-06T00:57:40;99733.41;;;17.67;73.72
78337;BME280;67610;51.588;7.002;2023-08-06T01:00:06;99732.19;;;17.63;73.99
78337;BME280;67610;51.588;7.002;2023-08-06T01:02:32;99728.53;;;17.64;73.75
78337;BME280;67610;51.588;7.002;2023-08-06T01:04:58;99725.56;;;17.72;73.53
78337;BME280;67610;51.588;7.002;2023-08-06T01:15:42;99718.75;;;17.58;73.74
78337;BME280;67610;51.588;7.002;2023-08-06T01:18:10;99720.38;;;17.59;73.96
78337;BME280;67610;51.588;7.002;2023-08-06T01:20:35;99710.56;;;17.59;73.41
78337;BME280;67610;51.588;7.002;2023-08-06T01:23:01;99714.47;;;17.57;73.59
78337;BME280;67610;51.588;7.002;2023-08-06T01:25:33;99708.50;;;17.61;73.58
78337;BME280;67610;51.588;7.002;2023-08-06T01:28:06;99711.50;;;17.65;73.20
78337;BME280;67610;51.588;7.002;2023-08-06T01:30:33;99714.19;;;17.65;73.23
78337;BME280;67610;51.588;7.002;2023-08-06T01:33:04;99708.84;;;17.65;72.99
78337;BME280;67610;51.588;7.002;2023-08-06T01:35:32;99704.81;;;17.62;73.07
78337;BME280;67610;51.588;7.002;2023-08-06T01:37:59;99700.28;;;17.63;73.48
78337;BME280;67610;51.588;7.002;2023-08-06T01:40:24;99701.34;;;17.62;73.10
78337;BME280;67610;51.588;7.002;2023-08-06T01:42:52;99708.72;;;17.60;73.25
78337;BME280;67610;51.588;7.002;2023-08-06T01:45:17;99704.44;;;17.59;73.46
78337;BME280;67610;51.588;7.002;2023-08-06T01:47:43;99702.38;;;17.61;73.39
78337;BME280;67610;51.588;7.002;2023-08-06T01:50:08;99692.53;;;17.61;73.53
78337;BME280;67610;51.588;7.002;2023-08-06T01:52:34;99693.28;;;17.68;73.19
78337;BME280;67610;51.588;7.002;2023-08-06T01:54:59;99699.28;;;17.64;73.04
78337;BME280;67610;51.588;7.002;2023-08-06T01:57:24;99692.91;;;17.65;73.42
78337;BME280;67610;51.588;7.002;2023-08-06T01:59:50;99693.28;;;17.68;73.20
78337;BME280;67610;51.588;7.002;2023-08-06T02:02:15;99688.34;;;17.72;73.42
78337;BME280;67610;51.588;7.002;2023-08-06T02:04:40;99688.50;;;17.77;73.06
78337;BME280;67610;51.588;7.002;2023-08-06T02:07:06;99685.00;;;17.76;73.21
78337;BME280;67610;51.588;7.002;2023-08-06T02:09:31;99697.94;;;17.73;73.36
78337;BME280;67610;51.588;7.002;2023-08-06T02:11:57;99685.53;;;17.67;73.44
78337;BME280;67610;51.588;7.002;2023-08-06T02:14:22;99689.06;;;17.61;73.67
78337;BME280;67610;51.588;7.002;2023-08-06T02:16:47;99685.38;;;17.62;73.71
78337;BME280;67610;51.588;7.002;2023-08-06T02:19:13;99684.13;;;17.64;73.95
78337;BME280;67610;51.588;7.002;2023-08-06T02:21:39;99682.25;;;17.65;73.82
78337;BME280;67610;51.588;7.002;2023-08-06T02:24:04;99681.00;;;17.67;73.74
78337;BME280;67610;51.588;7.002;2023-08-06T02:26:29;99680.22;;;17.67;73.62
78337;BME280;67610;51.588;7.002;2023-08-06T02:28:55;99676.81;;;17.60;73.77
78337;BME280;67610;51.588;7.002;2023-08-06T02:31:20;99681.69;;;17.63;73.89
78337;BME280;67610;51.588;7.002;2023-08-06T02:33:45;99674.50;;;17.63;73.71
78337;BME280;67610;51.588;7.002;2023-08-06T02:36:11;99676.34;;;17.63;73.68
78337;BME280;67610;51.588;7.002;2023-08-06T02:38:36;99679.91;;;17.75;73.21
78337;BME280;67610;51.588;7.002;2023-08-06T02:41:02;99669.34;;;17.68;73.28
78337;BME280;67610;51.588;7.002;2023-08-06T02:43:28;99673.25;;;17.66;73.26
78337;BME280;67610;51.588;7.002;2023-08-06T02:45:57;99667.72;;;17.67;73.03
78337;BME280;67610;51.588;7.002;2023-08-06T02:48:22;99669.19;;;17.63;73.22
78337;BME280;67610;51.588;7.002;2023-08-06T02:50:48;99669.19;;;17.63;73.11
78337;BME280;67610;51.588;7.002;2023-08-06T02:53:13;99661.81;;;17.65;73.37
78337;BME280;67610;51.588;7.002;2023-08-06T02:55:45;99660.56;;;17.68;73.30
78337;BME280;67610;51.588;7.002;2023-08-06T02:58:11;99656.94;;;17.62;73.51
78337;BME280;67610;51.588;7.002;2023-08-06T03:00:37;99649.59;;;17.58;73.85
78337;BME280;67610;51.588;7.002;2023-08-06T03:03:02;99650.81;;;17.62;73.74
78337;BME280;67610;51.588;7.002;2023-08-06T03:05:27;99644.09;;;17.59;73.66
78337;BME280;67610;51.588;7.002;2023-08-06T03:07:56;99637.53;;;17.62;73.34
78337;BME280;67610;51.588;7.002;2023-08-06T03:10:21;99643.84;;;17.61;73.41
78337;BME280;67610;51.588;7.002;2023-08-06T03:12:46;99640.19;;;17.62;73.15
78337;BME280;67610;51.588;7.002;2023-08-06T03:15:12;99635.28;;;17.59;73.14
78337;BME280;67610;51.588;7.002;2023-08-06T03:17:37;99635.72;;;17.56;73.49
78337;BME280;67610;51.588;7.002;2023-08-06T03:20:03;99635.72;;;17.56;73.11
78337;BME280;67610;51.588;7.002;2023-08-06T03:22:28;99633.72;;;17.51;73.31
78337;BME280;67610;51.588;7.002;2023-08-06T03:24:53;99621.88;;;17.47;73.30
78337;BME280;67610;51.588;7.002;2023-08-06T03:27:19;99638.06;;;17.45;73.29
78337;BME280;67610;51.588;7.002;2023-08-06T03:29:44;99634.34;;;17.46;73.47
78337;BME280;67610;51.588;7.002;2023-08-06T03:32:10;99632.75;;;17.45;73.61
78337;BME280;67610;51.588;7.002;2023-08-06T03:34:35;99639.25;;;17.50;73.58
78337;BME280;67610;51.588;7.002;2023-08-06T03:37:00;99632.09;;;17.50;73.15
78337;BME280;67610;51.588;7.002;2023-08-06T03:39:26;99627.59;;;17.51;73.51
78337;BME280;67610;51.588;7.002;2023-08-06T03:41:51;99627.16;;;17.54;73.49
78337;BME280;67610;51.588;7.002;2023-08-06T03:44:16;99625.94;;;17.50;73.33
78337;BME280;67610;51.588;7.002;2023-08-06T03:46:42;99623.72;;;17.46;73.56
78337;BME280;67610;51.588;7.002;2023-08-06T03:49:07;99625.56;;;17.46;73.53
78337;BME280;67610;51.588;7.002;2023-08-06T03:51:32;99631.69;;;17.46;73.56
78337;BME280;67610;51.588;7.002;2023-08-06T03:53:58;99623.97;;;17.45;73.51
78337;BME280;67610;51.588;7.002;2023-08-06T03:56:23;99628.03;;;17.48;73.61
78337;BME280;67610;51.588;7.002;2023-08-06T03:58:48;99621.44;;;17.50;73.37
78337;BME280;67610;51.588;7.002;2023-08-06T04:01:14;99627.78;;;17.49;73.34
78337;BME280;67610;51.588;7.002;2023-08-06T04:03:40;99623.53;;;17.48;73.23
78337;BME280;67610;51.588;7.002;2023-08-06T04:06:06;99624.72;;;17.52;73.05
78337;BME280;67610;51.588;7.002;2023-08-06T04:08:31;99626.78;;;17.50;72.73
78337;BME280;67610;51.588;7.002;2023-08-06T04:10:57;99625.78;;;17.44;73.01
78337;BME280;67610;51.588;7.002;2023-08-06T04:13:22;99619.31;;;17.40;73.03
78337;BME280;67610;51.588;7.002;2023-08-06T04:15:47;99621.97;;;17.40;73.10
78337;BME280;67610;51.588;7.002;2023-08-06T04:18:13;99629.34;;;17.38;73.36
78337;BME280;67610;51.588;7.002;2023-08-06T04:20:45;99618.13;;;17.36;73.21
78337;BME280;67610;51.588;7.002;2023-08-06T04:23:11;99622.81;;;17.34;73.31
78337;BME280;67610;51.588;7.002;2023-08-06T04:25:36;99626.53;;;17.33;73.29
78337;BME280;67610;51.588;7.002;2023-08-06T04:28:02;99628.38;;;17.33;73.39
78337;BME280;67610;51.588;7.002;2023-08-06T04:30:27;99623.28;;;17.31;73.25
78337;BME280;67610;51.588;7.002;2023-08-06T04:32:52;99629.41;;;17.32;73.42
78337;BME280;67610;51.588;7.002;2023-08-06T04:35:18;99626.13;;;17.30;73.29
78337;BME280;67610;51.588;7.002;2023-08-06T04:37:43;99621.47;;;17.25;73.51
78337;BME280;67610;51.588;7.002;2023-08-06T04:40:09;99624.13;;;17.25;73.67
78337;BME280;67610;51.588;7.002;2023-08-06T04:42:35;99624.53;;;17.29;73.70
78337;BME280;67610;51.588;7.002;2023-08-06T04:45:01;99621.63;;;17.30;73.57
78337;BME280;67610;51.588;7.002;2023-08-06T04:47:27;99621.63;;;17.30;73.74
78337;BME280;67610;51.588;7.002;2023-08-06T04:49:53;99621.22;;;17.33;73.46
78337;BME280;67610;51.588;7.002;2023-08-06T04:52:18;99622.81;;;17.34;73.47
78337;BME280;67610;51.588;7.002;2023-08-06T04:54:43;99623.63;;;17.35;73.58
78337;BME280;67610;51.588;7.002;2023-08-06T04:57:09;99628.75;;;17.36;73.68
78337;BME280;67610;51.588;7.002;2023-08-06T04:59:35;99624.72;;;17.52;73.47
78337;BME280;67610;51.588;7.002;2023-08-06T05:02:00;99624.88;;;17.75;73.54
78337;BME280;67610;51.588;7.002;2023-08-06T05:04:26;99627.44;;;18.00;73.56
78337;BME280;67610;51.588;7.002;2023-08-06T05:06:52;99630.44;;;18.22;73.33
78337;BME280;67610;51.588;7.002;2023-08-06T05:09:17;99623.84;;;18.24;72.95
78337;BME280;67610;51.588;7.002;2023-08-06T05:11:42;99630.34;;;18.28;73.20
78337;BME280;67610;51.588;7.002;2023-08-06T05:14:08;99632.91;;;18.35;72.70
78337;BME280;67610;51.588;7.002;2023-08-06T05:16:33;99630.38;;;18.40;72.35
78337;BME280;67610;51.588;7.002;2023-08-06T05:18:58;99636.06;;;18.43;72.27
78337;BME280;67610;51.588;7.002;2023-08-06T05:21:24;99644.88;;;18.44;72.12
78337;BME280;67610;51.588;7.002;2023-08-06T05:23:49;99638.72;;;18.43;72.39
78337;BME280;67610;51.588;7.002;2023-08-06T05:26:14;99644.81;;;18.50;71.90
78337;BME280;67610;51.588;7.002;2023-08-06T05:28:43;99653.41;;;18.52;71.38
78337;BME280;67610;51.588;7.002;2023-08-06T05:31:09;99652.47;;;18.58;71.18
78337;BME280;67610;51.588;7.002;2023-08-06T05:33:34;99663.03;;;18.65;71.00
78337;BME280;67610;51.588;7.002;2023-08-06T05:35:59;99655.41;;;18.68;70.53
78337;BME280;67610;51.588;7.002;2023-08-06T05:38:25;99654.75;;;18.73;69.95
78337;BME280;67610;51.588;7.002;2023-08-06T05:40:50;99652.28;;;18.71;69.88
78337;BME280;67610;51.588;7.002;2023-08-06T05:43:16;99663.31;;;18.75;69.67
78337;BME280;67610;51.588;7.002;2023-08-06T05:45:45;99654.50;;;18.74;70.03
78337;BME280;67610;51.588;7.002;2023-08-06T05:48:11;99655.91;;;18.77;70.20
78337;BME280;67610;51.588;7.002;2023-08-06T05:50:37;99662.38;;;18.81;69.97
78337;BME280;67610;51.588;7.002;2023-08-06T05:53:02;99667.59;;;18.88;69.73
78337;BME280;67610;51.588;7.002;2023-08-06T05:55:28;99663.09;;;18.88;69.17
78337;BME280;67610;51.588;7.002;2023-08-06T05:57:53;99663.47;;;18.92;69.43
78337;BME280;67610;51.588;7.002;2023-08-06T06:00:20;99662.16;;;18.94;69.29
78337;BME280;67610;51.588;7.002;2023-08-06T06:02:45;99662.16;;;18.94;68.76
78337;BME280;67610;51.588;7.002;2023-08-06T06:05:11;99673.44;;;18.96;68.61
78337;BME280;67610;51.588;7.002;2023-08-06T06:07:36;99676.44;;;19.00;69.29
78337;BME280;67610;51.588;7.002;2023-08-06T06:10:01;99676.91;;;19.08;68.87
78337;BME280;67610;51.588;7.002;2023-08-06T06:12:27;99681.09;;;19.16;68.27
78337;BME280;67610;51.588;7.002;2023-08-06T06:14:52;99683.06;;;19.20;68.52
78337;BME280;67610;51.588;7.002;2023-08-06T06:17:18;99674.84;;;19.22;67.89
78337;BME280;67610;51.588;7.002;2023-08-06T06:19:43;99680.78;;;19.24;67.75
78337;BME280;67610;51.588;7.002;2023-08-06T06:22:08;99675.78;;;19.27;67.60
78337;BME280;67610;51.588;7.002;2023-08-06T06:24:34;99685.66;;;19.38;67.57
78337;BME280;67610;51.588;7.002;2023-08-06T06:27:00;99678.16;;;19.47;67.30
78337;BME280;67610;51.588;7.002;2023-08-06T06:29:25;99681.41;;;19.49;67.25
78337;BME280;67610;51.588;7.002;2023-08-06T06:31:50;99684.06;;;19.61;67.10
78337;BME280;67610;51.588;7.002;2023-08-06T06:34:16;99685.44;;;19.75;66.26
78337;BME280;67610;51.588;7.002;2023-08-06T06:36:41;99676.34;;;19.87;66.04
78337;BME280;67610;51.588;7.002;2023-08-06T06:39:06;99675.41;;;20.05;64.88
78337;BME280;67610;51.588;7.002;2023-08-06T06:41:33;99686.16;;;20.22;65.03
78337;BME280;67610;51.588;7.002;2023-08-06T06:43:58;99683.88;;;20.70;64.30
78337;BME280;67610;51.588;7.002;2023-08-06T06:46:24;99685.75;;;20.86;64.41
78337;BME280;67610;51.588;7.002;2023-08-06T06:48:49;99680.69;;;21.01;63.66
78337;BME280;67610;51.588;7.002;2023-08-06T06:51:14;99680.56;;;21.24;63.12
78337;BME280;67610;51.588;7.002;2023-08-06T06:53:40;99690.59;;;21.50;62.48
78337;BME280;67610;51.588;7.002;2023-08-06T06:56:05;99686.81;;;21.85;61.61
78337;BME280;67610;51.588;7.002;2023-08-06T06:58:32;99682.91;;;21.92;61.35
78337;BME280;67610;51.588;7.002;2023-08-06T07:00:57;99680.28;;;21.97;60.50
78337;BME280;67610;51.588;7.002;2023-08-06T07:03:23;99683.63;;;21.88;60.27
78337;BME280;67610;51.588;7.002;2023-08-06T07:05:49;99682.19;;;21.80;60.22
78337;BME280;67610;51.588;7.002;2023-08-06T07:08:14;99685.69;;;21.81;60.45
78337;BME280;67610;51.588;7.002;2023-08-06T07:10:43;99688.59;;;21.79;60.43
78337;BME280;67610;51.588;7.002;2023-08-06T07:13:09;99686.00;;;21.84;60.24
78337;BME280;67610;51.588;7.002;2023-08-06T07:15:34;99681.09;;;21.98;59.08
78337;BME280;67610;51.588;7.002;2023-08-06T07:18:00;99678.00;;;22.06;58.37
78337;BME280;67610;51.588;7.002;2023-08-06T07:20:26;99679.47;;;22.18;59.05
78337;BME280;67610;51.588;7.002;2023-08-06T07:22:54;99683.31;;;22.49;58.59
78337;BME280;67610;51.588;7.002;2023-08-06T07:25:19;99692.13;;;22.66;58.30
78337;BME280;67610;51.588;7.002;2023-08-06T07:27:45;99687.50;;;22.88;57.39
78337;BME280;67610;51.588;7.002;2023-08-06T07:30:10;99688.91;;;22.96;56.49
78337;BME280;67610;51.588;7.002;2023-08-06T07:32:36;99688.56;;;23.24;55.63
78337;BME280;67610;51.588;7.002;2023-08-06T07:35:01;99687.63;;;23.35;55.50
78337;BME280;67610;51.588;7.002;2023-08-06T07:37:28;99694.47;;;23.53;55.60
78337;BME280;67610;51.588;7.002;2023-08-06T07:39:57;99695.88;;;24.07;54.44
78337;BME280;67610;51.588;7.002;2023-08-06T07:42:22;99696.50;;;24.29;53.55
78337;BME280;67610;51.588;7.002;2023-08-06T07:44:55;99699.22;;;24.45;52.17
78337;BME280;67610;51.588;7.002;2023-08-06T07:47:21;99692.25;;;24.44;52.86
78337;BME280;67610;51.588;7.002;2023-08-06T07:49:46;99705.63;;;24.34;52.03
78337;BME280;67610;51.588;7.002;2023-08-06T07:52:11;99701.06;;;24.29;51.30
78337;BME280;67610;51.588;7.002;2023-08-06T07:54:37;99711.56;;;24.31;51.03
78337;BME280;67610;51.588;7.002;2023-08-06T07:57:03;99709.41;;;24.38;51.63
78337;BME280;67610;51.588;7.002;2023-08-06T07:59:28;99703.03;;;24.54;51.94
78337;BME280;67610;51.588;7.002;2023-08-06T08:01:53;99702.25;;;24.68;51.26
78337;BME280;67610;51.588;7.002;2023-08-06T08:04:19;99705.81;;;24.79;51.59
78337;BME280;67610;51.588;7.002;2023-08-06T08:06:44;99700.63;;;24.67;49.89
78337;BME280;67610;51.588;7.002;2023-08-06T08:09:09;99705.09;;;24.32;50.30
78337;BME280;67610;51.588;7.002;2023-08-06T08:11:35;99709.31;;;23.71;52.39
78337;BME280;67610;51.588;7.002;2023-08-06T08:14:00;99715.06;;;23.84;53.09
78337;BME280;67610;51.588;7.002;2023-08-06T08:16:25;99711.06;;;23.92;52.22
78337;BME280;67610;51.588;7.002;2023-08-06T08:18:51;99719.94;;;23.92;51.88
78337;BME280;67610;51.588;7.002;2023-08-06T08:21:16;99718.31;;;23.86;52.68
78337;BME280;67610;51.588;7.002;2023-08-06T08:23:43;99715.63;;;23.86;52.73
78337;BME280;67610;51.588;7.002;2023-08-06T08:26:09;99717.75;;;23.84;52.77
78337;BME280;67610;51.588;7.002;2023-08-06T08:28:34;99727.16;;;23.82;52.37
78337;BME280;67610;51.588;7.002;2023-08-06T08:30:59;99721.22;;;23.43;52.65
78337;BME280;67610;51.588;7.002;2023-08-06T08:33:25;99728.03;;;23.24;53.40
78337;BME280;67610;51.588;7.002;2023-08-06T08:35:50;99727.94;;;23.14;53.52
78337;BME280;67610;51.588;7.002;2023-08-06T08:38:15;99723.25;;;22.99;53.58
78337;BME280;67610;51.588;7.002;2023-08-06T08:40:47;99723.38;;;22.82;53.82
78337;BME280;67610;51.588;7.002;2023-08-06T08:43:15;99722.16;;;22.68;54.07
78337;BME280;67610;51.588;7.002;2023-08-06T08:45:42;99719.41;;;22.63;54.59
78337;BME280;67610;51.588;7.002;2023-08-06T08:48:09;99718.28;;;22.59;54.76
78337;BME280;67610;51.588;7.002;2023-08-06T08:50:36;99717.13;;;22.55;54.21
78337;BME280;67610;51.588;7.002;2023-08-06T08:53:02;99725.38;;;22.49;53.93
78337;BME280;67610;51.588;7.002;2023-08-06T08:55:28;99714.31;;;22.40;54.54
78337;BME280;67610;51.588;7.002;2023-08-06T08:57:53;99717.41;;;22.32;54.63
78337;BME280;67610;51.588;7.002;2023-08-06T09:00:21;99721.09;;;22.26;54.80
78337;BME280;67610;51.588;7.002;2023-08-06T09:02:47;99722.72;;;22.27;55.39
78337;BME280;67610;51.588;7.002;2023-08-06T09:05:12;99722.28;;;22.35;55.39
78337;BME280;67610;51.588;7.002;2023-08-06T09:07:42;99725.88;;;22.46;54.95
78337;BME280;67610;51.588;7.002;2023-08-06T09:10:11;99725.63;;;22.47;54.89
78337;BME280;67610;51.588;7.002;2023-08-06T09:12:36;99726.19;;;22.49;54.96
78337;BME280;67610;51.588;7.002;2023-08-06T09:15:03;99726.75;;;22.51;55.16
78337;BME280;67610;51.588;7.002;2023-08-06T09:17:28;99727.47;;;22.63;54.58
78337;BME280;67610;51.588;7.002;2023-08-06T09:19:54;99736.47;;;22.79;54.77
78337;BME280;67610;51.588;7.002;2023-08-06T09:22:20;99736.88;;;22.92;53.71
78337;BME280;67610;51.588;7.002;2023-08-06T09:24:45;99726.69;;;22.94;52.28
78337;BME280;67610;51.588;7.002;2023-08-06T09:27:12;99736.38;;;22.96;54.29
78337;BME280;67610;51.588;7.002;2023-08-06T09:29:44;99739.78;;;23.18;53.41
78337;BME280;67610;51.588;7.002;2023-08-06T09:32:11;99739.38;;;23.31;52.71
78337;BME280;67610;51.588;7.002;2023-08-06T09:34:42;99740.75;;;23.33;52.61
78337;BME280;67610;51.588;7.002;2023-08-06T09:37:11;99738.06;;;23.33;52.67
78337;BME280;67610;51.588;7.002;2023-08-06T09:39:38;99746.28;;;23.27;51.37
78337;BME280;67610;51.588;7.002;2023-08-06T09:42:04;99747.00;;;23.12;53.45
78337;BME280;67610;51.588;7.002;2023-08-06T09:44:32;99744.53;;;23.11;53.68
78337;BME280;67610;51.588;7.002;2023-08-06T09:46:59;99746.16;;;23.12;53.99
78337;BME280;67610;51.588;7.002;2023-08-06T09:49:27;99750.44;;;23.08;53.67
78337;BME280;67610;51.588;7.002;2023-08-06T09:51:54;99749.84;;;23.01;53.08
78337;BME280;67610;51.588;7.002;2023-08-06T09:54:25;99744.06;;;22.87;54.11
78337;BME280;67610;51.588;7.002;2023-08-06T09:56:54;99745.53;;;22.73;54.12
78337;BME280;67610;51.588;7.002;2023-08-06T09:59:20;99754.16;;;22.58;53.84
78337;BME280;67610;51.588;7.002;2023-08-06T10:01:46;99752.31;;;22.37;55.52
78337;BME280;67610;51.588;7.002;2023-08-06T10:04:13;99756.22;;;22.51;55.20
78337;BME280;67610;51.588;7.002;2023-08-06T10:06:42;99754.94;;;22.54;54.97
78337;BME280;67610;51.588;7.002;2023-08-06T10:09:07;99757.34;;;22.55;55.03
78337;BME280;67610;51.588;7.002;2023-08-06T10:11:36;99754.66;;;22.55;54.99
78337;BME280;67610;51.588;7.002;2023-08-06T10:14:29;99756.03;;;22.58;55.58
78337;BME280;67610;51.588;7.002;2023-08-06T10:16:57;99745.75;;;22.71;54.49
78337;BME280;67610;51.588;7.002;2023-08-06T10:19:23;99751.72;;;22.78;54.75
78337;BME280;67610;51.588;7.002;2023-08-06T10:24:58;99754.06;;;22.97;53.33
78337;BME280;67610;51.588;7.002;2023-08-06T10:30:32;99740.00;;;24.21;51.33
78337;BME280;67610;51.588;7.002;2023-08-06T10:33:00;99747.25;;;25.08;49.17
78337;BME280;67610;51.588;7.002;2023-08-06T10:35:46;99737.81;;;25.81;48.47
78337;BME280;67610;51.588;7.002;2023-08-06T10:38:18;99746.16;;;26.10;46.80
78337;BME280;67610;51.588;7.002;2023-08-06T10:41:01;99737.00;;;26.11;46.84
78337;BME280;67610;51.588;7.002;2023-08-06T10:43:34;99747.53;;;25.87;48.25
78337;BME280;67610;51.588;7.002;2023-08-06T10:46:09;99758.59;;;25.65;48.12
78337;BME280;67610;51.588;7.002;2023-08-06T10:48:40;99751.31;;;25.36;48.58
78337;BME280;67610;51.588;7.002;2023-08-06T10:51:12;99744.28;;;24.89;50.43
78337;BME280;67610;51.588;7.002;2023-08-06T10:53:42;99749.56;;;24.59;52.01
78337;BME280;67610;51.588;7.002;2023-08-06T10:56:24;99762.38;;;24.37;52.52
78337;BME280;67610;51.588;7.002;2023-08-06T10:58:53;99768.47;;;24.17;53.25
78337;BME280;67610;51.588;7.002;2023-08-06T11:01:19;99756.22;;;23.95;54.42
78337;BME280;67610;51.588;7.002;2023-08-06T11:03:46;99761.16;;;23.71;54.83
78337;BME280;67610;51.588;7.002;2023-08-06T11:06:20;99765.03;;;23.48;56.03
78337;BME280;67610;51.588;7.002;2023-08-06T11:08:47;99764.53;;;23.25;56.06
78337;BME280;67610;51.588;7.002;2023-08-06T11:11:15;99773.72;;;23.02;56.59
78337;BME280;67610;51.588;7.002;2023-08-06T11:13:42;99766.50;;;22.81;57.69
78337;BME280;67610;51.588;7.002;2023-08-06T11:16:08;99766.28;;;22.61;58.16
78337;BME280;67610;51.588;7.002;2023-08-06T11:18:34;99768.06;;;22.55;58.53
78337;BME280;67610;51.588;7.002;2023-08-06T11:21:00;99763.09;;;22.42;58.86
78337;BME280;67610;51.588;7.002;2023-08-06T11:23:29;99758.88;;;22.24;59.33
78337;BME280;67610;51.588;7.002;2023-08-06T11:25:56;99758.97;;;22.13;59.83
78337;BME280;67610;51.588;7.002;2023-08-06T11:28:22;99770.28;;;21.98;60.01
78337;BME280;67610;51.588;7.002;2023-08-06T11:30:48;99768.75;;;21.86;60.80
78337;BME280;67610;51.588;7.002;2023-08-06T11:33:14;99761.94;;;21.78;61.34
78337;BME280;67610;51.588;7.002;2023-08-06T11:35:40;99769.88;;;21.73;61.24
78337;BME280;67610;51.588;7.002;2023-08-06T11:38:05;99771.50;;;21.74;61.75
78337;BME280;67610;51.588;7.002;2023-08-06T11:40:32;99769.97;;;21.62;62.54
78337;BME280;67610;51.588;7.002;2023-08-06T11:42:57;99769.91;;;21.56;62.52
78337;BME280;67610;51.588;7.002;2023-08-06T11:45:26;99768.34;;;21.61;62.49
78337;BME280;67610;51.588;7.002;2023-08-06T11:47:52;99767.88;;;21.64;62.77
78337;BME280;67610;51.588;7.002;2023-08-06T11:50:25;99773.13;;;21.75;62.80
78337;BME280;67610;51.588;7.002;2023-08-06T11:52:54;99782.19;;;21.74;62.80
78337;BME280;67610;51.588;7.002;2023-08-06T11:55:25;99776.16;;;21.62;62.27
78337;BME280;67610;51.588;7.002;2023-08-06T11:57:51;99778.66;;;21.52;61.75
78337;BME280;67610;51.588;7.002;2023-08-06T12:00:17;99771.75;;;21.23;62.17
78337;BME280;67610;51.588;7.002;2023-08-06T12:02:45;99780.66;;;21.00;62.99
78337;BME280;67610;51.588;7.002;2023-08-06T12:05:15;99776.19;;;20.89;63.35
78337;BME280;67610;51.588;7.002;2023-08-06T12:07:45;99775.38;;;20.88;63.33
78337;BME280;67610;51.588;7.002;2023-08-06T12:10:12;99790.97;;;20.80;63.56
78337;BME280;67610;51.588;7.002;2023-08-06T12:12:38;99793.38;;;20.65;63.58
78337;BME280;67610;51.588;7.002;2023-08-06T12:15:08;99807.84;;;20.29;64.97
78337;BME280;67610;51.588;7.002;2023-08-06T12:17:34;99816.66;;;20.06;65.86
78337;BME280;67610;51.588;7.002;2023-08-06T12:19:59;99826.75;;;20.04;66.07
78337;BME280;67610;51.588;7.002;2023-08-06T12:22:25;99826.19;;;20.02;65.28
78337;BME280;67610;51.588;7.002;2023-08-06T12:24:50;99830.56;;;19.85;65.74
78337;BME280;67610;51.588;7.002;2023-08-06T12:27:16;99832.25;;;19.57;65.61
78337;BME280;67610;51.588;7.002;2023-08-06T12:29:43;99827.03;;;19.20;67.01
78337;BME280;67610;51.588;7.002;2023-08-06T12:32:09;99829.91;;;19.07;65.92
78337;BME280;67610;51.588;7.002;2023-08-06T12:34:35;99832.72;;;18.94;66.51
78337;BME280;67610;51.588;7.002;2023-08-06T12:37:00;99833.09;;;18.43;67.57
78337;BME280;67610;51.588;7.002;2023-08-06T12:39:25;99841.63;;;18.34;67.98
78337;BME280;67610;51.588;7.002;2023-08-06T12:41:54;99854.63;;;18.24;68.79
78337;BME280;67610;51.588;7.002;2023-08-06T12:44:19;99854.97;;;18.09;68.65
78337;BME280;67610;51.588;7.002;2023-08-06T12:46:45;99856.56;;;17.92;69.14
78337;BME280;67610;51.588;7.002;2023-08-06T12:49:10;99865.22;;;17.87;68.71
78337;BME280;67610;51.588;7.002;2023-08-06T12:51:35;99861.88;;;17.67;69.70
78337;BME280;67610;51.588;7.002;2023-08-06T12:54:01;99863.81;;;17.54;70.84
78337;BME280;67610;51.588;7.002;2023-08-06T12:56:26;99872.63;;;17.48;70.46
78337;BME280;67610;51.588;7.002;2023-08-06T12:58:52;99869.53;;;17.51;70.50
78337;BME280;67610;51.588;7.002;2023-08-06T13:01:17;99867.94;;;17.43;70.45
78337;BME280;67610;51.588;7.002;2023-08-06T13:03:42;99869.75;;;17.49;70.99
78337;BME280;67610;51.588;7.002;2023-08-06T13:06:08;99875.03;;;17.56;70.54
78337;BME280;67610;51.588;7.002;2023-08-06T13:08:35;99876.31;;;17.46;71.64
78337;BME280;67610;51.588;7.002;2023-08-06T13:11:00;99878.78;;;17.41;71.66